Terminal Aerodrome Forecast
Issued by NWS Cleveland, OH

Home | Current Version | Previous Version | Graphics & Text | Print | Product List | Glossary On
Versions: 1 2 3 4 5 6 7 8 9 10 11 12 13 14 15 16 17 18 19 20 21 22 23 24 25 26 27 28 29 30 31
000
FTUS41 KCLE 121400 AAA
TAFCLE
TAF AMD
KCLE 121455Z 1215/1318 22008KT P6SM SCT120 BKN200
     FM130200 19006KT P6SM BKN070 OVC120
     FM130800 22012KT P6SM VCTS BKN035CB
      TEMPO 1310/1314 2SM TSRA BR SCT015 OVC025CB
     FM131400 24012KT 4SM -SHRA BKN030=

USA.gov is the U.S. government's official web portal to all federal, state and local government web resources and services.